Time;durP1;ratioP1;P1;durP2;ratioP2;P2;SDS_P1;SDS_P2;PMS_P1;PMS_P2;Temp;Humidity;BMP_temperature;BMP_pressure;BME280_temperature;BME280_humidity;BME280_pressure;Samples;Min_cycle;Max_cycle;Signal;HPM_P1;HPM_P2
2021/07/12 00:00:31;;;;;;;13.60;9.68;;;;;;;18.09;83.55;101296.06;5051233;28;20023;-87
2021/07/12 00:02:58;;;;;;;12.23;8.90;;;;;;;18.19;83.33;101304.66;5050800;28;20045;-85
2021/07/12 00:05:25;;;;;;;13.75;8.55;;;;;;;18.18;83.63;101297.56;5051098;28;20390;-86
2021/07/12 00:07:51;;;;;;;12.15;8.65;;;;;;;18.15;83.47;101300.66;5050046;28;20104;-87
2021/07/12 00:10:20;;;;;;;14.73;10.45;;;;;;;18.07;83.29;101290.84;5067746;28;20037;-85
2021/07/12 00:12:46;;;;;;;11.48;9.15;;;;;;;18.20;83.25;101297.38;5067474;28;20044;-86
2021/07/12 00:15:16;;;;;;;13.23;9.10;;;;;;;18.13;83.02;101295.47;5067525;28;20021;-86
2021/07/12 00:17:41;;;;;;;12.30;9.13;;;;;;;18.03;83.17;101284.19;5050598;28;20033;-87
2021/07/12 00:20:08;;;;;;;11.27;9.00;;;;;;;18.02;83.58;101287.91;5050972;28;20055;-86
2021/07/12 00:22:34;;;;;;;10.27;8.23;;;;;;;18.14;82.92;101294.44;5067582;28;20035;-87
2021/07/12 00:24:59;;;;;;;11.93;8.40;;;;;;;18.05;82.94;101290.22;5034704;28;20128;-87
2021/07/12 00:27:25;;;;;;;13.38;9.30;;;;;;;17.85;82.93;101260.38;5067696;28;20037;-86
2021/07/12 00:29:51;;;;;;;13.37;9.63;;;;;;;18.05;83.26;101294.78;5050810;28;20029;-87
2021/07/12 00:32:18;;;;;;;11.70;8.68;;;;;;;18.07;82.95;101285.44;5067606;28;20082;-86
2021/07/12 00:34:43;;;;;;;10.65;9.02;;;;;;;18.00;83.05;101295.38;5067837;28;20469;-87
2021/07/12 00:37:08;;;;;;;10.80;9.07;;;;;;;17.95;83.39;101281.63;5050755;28;20025;-85
2021/07/12 00:39:34;;;;;;;14.47;9.07;;;;;;;18.02;82.71;101293.31;5051001;28;20037;-86
2021/07/12 00:41:59;;;;;;;10.43;7.73;;;;;;;17.92;82.42;101276.63;5067197;28;20025;-87
2021/07/12 00:44:27;;;;;;;16.00;9.27;;;;;;;17.83;82.96;101265.13;5050764;28;20112;-87
2021/07/12 00:46:54;;;;;;;10.20;7.73;;;;;;;17.85;82.91;101264.94;5067244;28;20068;-85
2021/07/12 00:49:21;;;;;;;11.95;9.23;;;;;;;17.99;82.54;101287.47;5067675;28;20171;-87
2021/07/12 00:51:47;;;;;;;14.80;9.50;;;;;;;17.81;82.46;101252.88;5050908;28;20162;-87
2021/07/12 00:54:12;;;;;;;10.63;8.35;;;;;;;17.93;82.77;101286.38;5067843;28;20120;-87
2021/07/12 00:56:39;;;;;;;10.75;8.63;;;;;;;17.84;83.10;101268.66;5050522;28;20040;-86
2021/07/12 00:59:05;;;;;;;12.10;9.23;;;;;;;17.88;82.99;101278.03;5051223;28;20025;-86
2021/07/12 01:01:31;;;;;;;;;;;;;;;17.88;82.97;101280.75;5067804;28;20776;-85
2021/07/12 01:03:58;;;;;;;13.43;8.80;;;;;;;17.79;82.82;101276.50;5050806;28;20419;-85
2021/07/12 01:06:25;;;;;;;12.23;8.60;;;;;;;17.75;82.57;101269.81;5067531;28;20028;-87
2021/07/12 01:08:50;;;;;;;11.52;7.90;;;;;;;17.88;82.32;101275.34;5067470;28;20132;-86
2021/07/12 01:11:56;;;;;;;10.30;8.45;;;;;;;17.96;82.34;101275.22;5067137;28;20044;-87
2021/07/12 01:14:50;;;;;;;10.27;8.30;;;;;;;17.92;81.79;101279.31;5067472;28;20041;-86
2021/07/12 01:17:39;;;;;;;12.48;8.50;;;;;;;17.86;82.67;101272.00;5066984;28;20455;-86
2021/07/12 01:20:58;;;;;;;12.05;8.50;;;;;;;17.85;82.39;101270.34;5069419;28;20029;-87
2021/07/12 01:23:55;;;;;;;9.75;8.10;;;;;;;17.82;82.02;101259.94;5070541;28;20036;-86
2021/07/12 01:26:58;;;;;;;11.00;8.50;;;;;;;17.83;82.43;101264.31;5053377;28;20429;-86
2021/07/12 01:29:55;;;;;;;8.90;7.88;;;;;;;17.87;81.93;101262.88;5053798;28;20033;-87
2021/07/12 01:32:44;;;;;;;10.63;8.40;;;;;;;17.80;82.66;101264.69;5070295;28;20103;-87
2021/07/12 01:35:24;;;;;;;11.35;8.57;;;;;;;17.68;82.54;101254.41;5037077;28;20028;-86
2021/07/12 01:38:01;;;;;;;12.57;8.82;;;;;;;17.51;82.58;101237.69;5053678;28;20029;-88
2021/07/12 01:40:51;;;;;;;;;;;;;;;17.69;83.12;101261.47;5054255;28;20028;-86
2021/07/12 01:43:32;;;;;;;11.82;8.35;;;;;;;17.57;82.99;101251.44;5053481;28;20666;-85
2021/07/12 01:46:27;;;;;;;10.90;8.73;;;;;;;17.63;83.30;101247.94;5070143;28;20082;-87
2021/07/12 01:49:04;;;;;;;13.23;8.25;;;;;;;17.58;83.29;101245.81;5069930;28;20033;-86
2021/07/12 01:51:41;;;;;;;11.50;7.82;;;;;;;17.67;82.88;101258.13;5053602;28;20037;-86
2021/07/12 01:54:16;;;;;;;13.43;8.65;;;;;;;17.64;83.02;101253.13;5069985;28;20501;-87
2021/07/12 01:56:59;;;;;;;11.32;8.77;;;;;;;17.56;83.12;101250.59;5053159;28;20040;-86
2021/07/12 01:59:37;;;;;;;;;;;;;;;17.57;83.60;101252.25;5070204;28;20132;-86
2021/07/12 02:02:07;;;;;;;21.10;9.93;;;;;;;17.46;84.11;101250.09;5052887;28;19920;-87
2021/07/12 02:04:41;;;;;;;9.18;7.85;;;;;;;17.48;84.26;101245.34;5068903;28;20055;-86
2021/07/12 02:07:12;;;;;;;10.75;8.32;;;;;;;17.38;84.30;101242.16;5053015;28;20120;-87
2021/07/12 02:09:42;;;;;;;10.20;8.48;;;;;;;17.38;84.71;101247.56;5069892;28;20097;-87
2021/07/12 02:12:10;;;;;;;13.82;8.80;;;;;;;17.32;84.46;101248.31;5052906;28;20036;-86
2021/07/12 02:14:44;;;;;;;11.20;8.85;;;;;;;17.32;84.38;101251.84;5069972;28;20067;-86
2021/07/12 02:17:14;;;;;;;9.57;8.57;;;;;;;17.27;84.33;101241.63;5069624;28;20059;-85
2021/07/12 02:19:42;;;;;;;9.60;8.43;;;;;;;17.35;85.17;101253.31;5069798;28;20044;-86
2021/07/12 02:22:11;;;;;;;11.82;8.13;;;;;;;17.33;84.87;101244.59;5069586;28;20110;-87
2021/07/12 02:25:04;;;;;;;11.77;8.80;;;;;;;17.29;84.91;101239.56;5053175;28;20062;-87
2021/07/12 02:27:32;;;;;;;9.82;8.15;;;;;;;17.33;84.65;101228.41;5052569;28;20519;-86
2021/07/12 02:29:59;;;;;;;12.15;7.97;;;;;;;17.27;84.46;101222.75;5052955;28;20063;-86
2021/07/12 02:32:27;;;;;;;14.15;8.73;;;;;;;17.33;84.63;101233.81;5052224;28;20025;-85
2021/07/12 02:34:55;;;;;;;11.55;8.73;;;;;;;17.25;84.72;101238.28;5069193;28;20041;-87
2021/07/12 02:37:21;;;;;;;16.00;9.15;;;;;;;17.23;85.07;101224.19;5069208;28;20063;-86
2021/07/12 02:39:49;;;;;;;9.07;8.05;;;;;;;17.24;84.87;101236.63;5078646;22;20385;-76
2021/07/12 02:42:16;;;;;;;12.13;9.10;;;;;;;17.17;85.61;101230.34;5070750;28;20087;-75
2021/07/12 02:44:46;;;;;;;12.52;8.55;;;;;;;17.16;85.73;101225.13;5071280;28;20036;-75
2021/07/12 02:47:13;;;;;;;9.88;8.43;;;;;;;17.15;85.89;101227.00;5071138;28;20146;-75
2021/07/12 02:49:41;;;;;;;9.40;8.40;;;;;;;17.13;85.79;101228.22;5071376;28;20119;-75
2021/07/12 02:52:14;;;;;;;;;;;;;;;17.09;85.98;101225.94;5072604;28;20051;-75
2021/07/12 02:54:42;;;;;;;13.25;9.68;;;;;;;17.06;86.10;101222.78;5070927;28;19916;-75
2021/07/12 02:57:10;;;;;;;12.88;8.18;;;;;;;16.98;86.61;101220.22;5071240;28;20033;-76
2021/07/12 02:59:36;;;;;;;13.73;9.98;;;;;;;16.92;86.52;101221.81;5071404;28;20028;-75
2021/07/12 03:02:02;;;;;;;13.70;8.82;;;;;;;16.87;87.19;101225.09;5071911;28;20373;-76
2021/07/12 03:04:28;;;;;;;11.18;8.10;;;;;;;16.90;87.36;101221.16;5072187;28;20033;-76
2021/07/12 03:06:57;;;;;;;11.65;7.93;;;;;;;16.94;86.85;101224.31;5070718;28;20555;-75
2021/07/12 03:09:30;;;;;;;12.85;8.52;;;;;;;16.93;86.33;101222.63;5071087;28;20377;-76
2021/07/12 03:12:06;;;;;;;12.85;8.25;;;;;;;16.85;86.65;101221.72;5054193;28;20499;-75
2021/07/12 03:14:38;;;;;;;11.38;9.48;;;;;;;16.80;86.74;101218.78;5070845;28;20482;-76
2021/07/12 03:17:07;;;;;;;12.70;8.63;;;;;;;16.82;87.01;101219.44;5053840;28;20528;-75
2021/07/12 03:19:35;;;;;;;14.43;9.05;;;;;;;16.84;86.96;101217.38;5070781;28;20430;-75
2021/07/12 03:22:04;;;;;;;13.25;8.18;;;;;;;16.78;87.26;101215.41;5071342;28;20036;-75
2021/07/12 03:24:36;;;;;;;10.90;9.07;;;;;;;16.73;87.08;101212.47;5070476;28;20479;-75
2021/07/12 03:27:03;;;;;;;12.00;8.98;;;;;;;16.72;87.58;101202.72;5070136;28;20032;-76
2021/07/12 03:29:35;;;;;;;11.68;10.48;;;;;;;16.71;87.71;101209.13;5054191;28;20028;-75
2021/07/12 03:32:02;;;;;;;11.73;9.05;;;;;;;16.78;88.09;101203.81;5087062;28;20047;-75
2021/07/12 03:34:29;;;;;;;12.02;9.23;;;;;;;16.78;87.91;101204.63;5053582;28;20761;-75
2021/07/12 03:36:55;;;;;;;;;;;;;;;16.79;87.63;101200.13;5071545;28;20036;-75
2021/07/12 03:39:22;;;;;;;;;;;;;;;16.79;88.35;101203.66;5070123;28;20343;-76
2021/07/12 03:41:47;;;;;;;17.48;11.10;;;;;;;16.80;88.46;101205.31;5069513;28;20352;-75
2021/07/12 03:44:13;;;;;;;12.00;9.68;;;;;;;16.81;88.52;101200.75;5069807;28;20048;-75
2021/07/12 03:46:45;;;;;;;16.07;8.97;;;;;;;16.92;88.02;101202.09;5069839;28;20472;-75
2021/07/12 03:49:15;;;;;;;11.20;8.73;;;;;;;16.98;87.92;101198.66;5070010;28;20036;-76
2021/07/12 03:51:46;;;;;;;12.20;9.35;;;;;;;17.07;87.49;101201.00;5053689;28;20040;-75
2021/07/12 03:54:12;;;;;;;12.57;10.02;;;;;;;17.10;87.92;101202.47;5069703;28;20169;-76
2021/07/12 03:56:38;;;;;;;10.15;8.90;;;;;;;17.16;87.43;101204.41;5069832;28;20626;-75
2021/07/12 03:59:03;;;;;;;13.07;8.97;;;;;;;17.23;87.32;101194.50;5070535;28;20342;-75
2021/07/12 04:01:29;;;;;;;12.63;9.00;;;;;;;17.36;86.97;101195.63;5053142;28;20298;-75
2021/07/12 04:03:55;;;;;;;10.13;8.90;;;;;;;17.47;86.21;101192.41;5069697;28;20477;-75
2021/07/12 04:06:21;;;;;;;11.13;8.98;;;;;;;17.48;86.02;101192.19;5069197;28;20052;-75
2021/07/12 04:08:46;;;;;;;14.43;9.07;;;;;;;17.52;86.69;101196.16;5069568;28;20046;-75
2021/07/12 04:11:12;;;;;;;14.53;9.07;;;;;;;17.60;86.97;101187.06;5069544;28;20032;-75
2021/07/12 04:13:39;;;;;;;13.82;9.10;;;;;;;17.67;86.14;101187.94;5069566;28;20120;-75
2021/07/12 04:16:05;;;;;;;11.32;8.57;;;;;;;17.71;85.54;101189.22;5070030;28;20033;-75
2021/07/12 04:18:30;;;;;;;12.18;8.27;;;;;;;17.73;85.86;101179.03;5069537;28;20130;-76
2021/07/12 04:20:56;;;;;;;8.60;7.70;;;;;;;17.81;85.54;101171.84;5069520;28;20779;-75
2021/07/12 04:23:23;;;;;;;12.40;8.30;;;;;;;17.87;85.07;101176.47;5069224;28;20032;-77
2021/07/12 04:25:48;;;;;;;;;;;;;;;17.91;84.86;101170.47;5070397;28;20434;-75
2021/07/12 04:28:13;;;;;;;;;;;;;;;18.02;84.72;101176.31;5069693;28;19969;-75
2021/07/12 04:30:39;;;;;;;9.50;7.90;;;;;;;18.05;84.85;101175.91;5069616;28;19992;-75
2021/07/12 04:33:04;;;;;;;11.53;8.13;;;;;;;18.14;84.04;101178.25;5069143;28;20035;-75
2021/07/12 04:35:29;;;;;;;11.67;8.23;;;;;;;18.20;83.41;101170.38;5069163;28;20102;-75
2021/07/12 04:37:55;;;;;;;11.45;7.75;;;;;;;18.26;83.73;101164.13;5068849;28;20032;-75
2021/07/12 04:40:20;;;;;;;15.87;8.17;;;;;;;18.30;83.79;101168.09;5069553;28;20040;-75
2021/07/12 04:42:46;;;;;;;11.60;8.63;;;;;;;18.38;83.16;101173.34;5069795;28;20048;-75
2021/07/12 04:45:12;;;;;;;8.50;7.38;;;;;;;18.45;83.41;101171.47;5070017;28;20032;-75
2021/07/12 04:47:40;;;;;;;15.77;8.82;;;;;;;18.53;82.94;101165.03;5068765;28;20051;-75
2021/07/12 04:50:07;;;;;;;12.87;8.07;;;;;;;18.63;83.02;101165.47;5070235;28;20129;-75
2021/07/12 04:52:33;;;;;;;10.60;7.60;;;;;;;18.61;81.74;101167.53;5068903;28;20043;-75
2021/07/12 04:54:59;;;;;;;13.45;7.30;;;;;;;18.61;81.62;101170.25;5068639;28;20051;-75
2021/07/12 04:57:25;;;;;;;13.40;7.22;;;;;;;18.67;81.69;101165.91;5069934;28;20044;-75
2021/07/12 04:59:51;;;;;;;13.67;8.23;;;;;;;18.74;81.48;101169.44;5069813;28;20512;-75
2021/07/12 05:02:17;;;;;;;8.68;7.20;;;;;;;18.83;81.34;101165.53;5068957;28;20058;-75
2021/07/12 05:04:43;;;;;;;9.15;6.75;;;;;;;18.91;81.02;101162.63;5051949;28;20036;-75
2021/07/12 05:07:10;;;;;;;15.13;7.80;;;;;;;18.95;80.71;101158.47;5069573;28;20033;-75
2021/07/12 05:09:36;;;;;;;11.77;7.90;;;;;;;18.98;80.51;101162.63;5068641;28;20083;-75
2021/07/12 05:12:01;;;;;;;17.67;7.60;;;;;;;18.95;80.81;101158.47;5068898;28;20729;-75
2021/07/12 05:14:27;;;;;;;14.05;7.75;;;;;;;19.07;79.93;101153.25;5069470;28;20066;-75
2021/07/12 05:16:53;;;;;;;8.80;6.63;;;;;;;19.13;80.08;101152.44;5069503;28;20377;-75
2021/07/12 05:19:19;;;;;;;14.00;8.30;;;;;;;19.22;79.40;101153.03;5069848;28;20032;-75
2021/07/12 05:21:46;;;;;;;9.93;7.45;;;;;;;19.36;78.60;101159.25;5069389;28;20031;-75
2021/07/12 05:24:11;;;;;;;;;;;;;;;19.53;78.65;101157.78;5069972;28;20033;-75
2021/07/12 05:26:37;;;;;;;;;;;;;;;19.75;77.94;101160.25;5067827;28;20222;-75
2021/07/12 05:29:02;;;;;;;7.87;6.70;;;;;;;19.80;76.79;101163.16;5068460;28;20261;-75
2021/07/12 05:31:27;;;;;;;12.90;7.22;;;;;;;20.00;76.80;101165.81;5067150;28;20093;-75
2021/07/12 05:33:53;;;;;;;7.90;7.10;;;;;;;20.12;76.19;101155.13;5066475;28;20036;-76
2021/07/12 05:36:18;;;;;;;8.10;6.60;;;;;;;20.54;74.73;101153.63;5065568;28;20040;-75
2021/07/12 05:38:44;;;;;;;12.18;6.45;;;;;;;20.95;72.08;101163.16;5066880;28;20037;-76
2021/07/12 05:41:10;;;;;;;13.40;6.80;;;;;;;21.38;70.77;101156.94;5067875;28;20050;-75
2021/07/12 05:43:35;;;;;;;7.57;6.30;;;;;;;21.78;69.81;101151.13;5067578;28;20037;-76
2021/07/12 05:46:01;;;;;;;9.33;6.30;;;;;;;22.25;67.34;101154.09;5068350;28;20051;-73
2021/07/12 05:48:27;;;;;;;7.47;5.45;;;;;;;22.33;66.19;101159.19;5067754;28;20608;-73
2021/07/12 05:50:52;;;;;;;6.60;5.30;;;;;;;23.03;64.82;101146.88;5068801;28;20036;-73
2021/07/12 05:53:18;;;;;;;9.67;5.07;;;;;;;23.01;64.65;101151.72;5067879;28;20111;-73
2021/07/12 05:55:44;;;;;;;8.07;5.33;;;;;;;23.21;63.92;101159.56;5068646;28;20372;-73
2021/07/12 05:58:09;;;;;;;5.93;4.80;;;;;;;23.90;61.92;101150.72;5067546;28;20028;-73
2021/07/12 06:00:35;;;;;;;7.03;5.45;;;;;;;23.50;62.31;101157.75;5069263;28;20345;-73
2021/07/12 06:03:00;;;;;;;7.22;4.50;;;;;;;24.09;60.43;101173.19;5068297;28;20067;-73
2021/07/12 06:05:26;;;;;;;5.93;5.33;;;;;;;24.19;59.27;101157.03;5067696;28;20036;-73
2021/07/12 06:07:51;;;;;;;7.47;4.53;;;;;;;24.76;58.27;101159.72;5071139;28;20036;-73
2021/07/12 06:10:16;;;;;;;5.00;4.57;;;;;;;25.34;56.01;101154.13;5088580;28;20056;-73
2021/07/12 06:12:42;;;;;;;6.33;4.73;;;;;;;25.55;56.28;101161.53;5054922;28;20041;-73
2021/07/12 06:15:09;;;;;;;8.20;5.13;;;;;;;25.17;56.42;101160.41;5071518;28;20294;-73
2021/07/12 06:17:34;;;;;;;6.78;4.95;;;;;;;24.85;56.78;101157.44;5072376;28;20453;-73
2021/07/12 06:20:00;;;;;;;6.55;5.38;;;;;;;25.00;56.93;101159.56;5071429;28;20032;-73
2021/07/12 06:22:25;;;;;;;6.28;4.35;;;;;;;25.03;56.85;101164.56;5071450;28;20044;-74
2021/07/12 06:24:51;;;;;;;7.57;5.13;;;;;;;25.21;55.98;101155.28;5071461;28;20037;-73
2021/07/12 06:27:16;;;;;;;7.00;4.97;;;;;;;24.94;57.10;101155.13;5071212;28;20283;-73
2021/07/12 06:29:42;;;;;;;5.67;4.70;;;;;;;25.48;55.81;101149.94;5071700;28;20044;-73
2021/07/12 06:32:08;;;;;;;;;;;;;;;24.99;56.80;101155.19;5071694;28;20055;-73
2021/07/12 06:34:33;;;;;;;5.70;4.90;;;;;;;24.61;56.83;101154.03;5071130;28;20286;-73
2021/07/12 06:36:58;;;;;;;6.87;5.37;;;;;;;24.46;58.20;101159.16;5070887;28;20051;-74
2021/07/12 06:39:24;;;;;;;7.83;5.60;;;;;;;24.69;57.05;101155.50;5071072;28;20052;-73
2021/07/12 06:41:49;;;;;;;6.67;5.23;;;;;;;25.43;55.62;101160.81;5070968;28;20078;-73
2021/07/12 06:44:14;;;;;;;7.07;5.13;;;;;;;25.46;55.18;101163.84;5071111;28;20037;-73
2021/07/12 06:46:48;;;;;;;10.02;5.35;;;;;;;25.03;56.85;101162.66;5071806;28;20032;-73
2021/07/12 06:49:13;;;;;;;10.40;5.45;;;;;;;24.98;57.11;101154.38;5071039;28;20025;-73
2021/07/12 06:51:38;;;;;;;5.97;4.73;;;;;;;25.83;54.32;101171.47;5071127;28;20377;-74
2021/07/12 06:54:04;;;;;;;5.77;5.20;;;;;;;25.25;56.57;101162.72;5070905;28;20278;-74
2021/07/12 06:56:30;;;;;;;6.87;5.47;;;;;;;24.97;56.13;101160.91;5071780;28;20039;-73
2021/07/12 06:58:56;;;;;;;8.43;6.18;;;;;;;24.76;57.07;101159.72;5072067;28;20056;-73
2021/07/12 07:01:21;;;;;;;5.30;4.80;;;;;;;25.23;57.00;101164.88;5054312;28;20526;-74
2021/07/12 07:03:46;;;;;;;5.22;4.63;;;;;;;25.07;56.61;101154.78;5070301;28;20032;-73
2021/07/12 07:06:12;;;;;;;7.50;5.10;;;;;;;24.76;58.54;101154.28;5087238;28;20047;-74
2021/07/12 07:08:37;;;;;;;5.60;5.10;;;;;;;24.92;58.41;101151.81;5053907;28;20028;-74
2021/07/12 07:11:04;;;;;;;7.77;5.07;;;;;;;25.41;57.22;101143.84;5070695;28;20028;-74
2021/07/12 07:13:29;;;;;;;6.07;5.45;;;;;;;25.13;55.74;101156.50;5070576;28;20093;-73
2021/07/12 07:15:57;;;;;;;7.07;5.25;;;;;;;25.32;56.14;101143.44;5071080;28;20115;-74
2021/07/12 07:18:23;;;;;;;8.13;5.30;;;;;;;25.22;57.87;101141.38;5070396;28;20146;-73
2021/07/12 07:20:48;;;;;;;9.07;5.47;;;;;;;24.96;58.23;101142.88;5070427;28;20040;-74
2021/07/12 07:23:14;;;;;;;6.95;5.30;;;;;;;25.21;57.61;101131.53;5070985;28;20056;-73
2021/07/12 07:25:39;;;;;;;6.83;5.70;;;;;;;25.14;56.39;101133.56;5068396;28;20530;-74
2021/07/12 07:28:05;;;;;;;5.93;4.97;;;;;;;24.54;59.08;101136.97;5068710;28;20286;-73
2021/07/12 07:30:31;;;;;;;6.22;5.57;;;;;;;25.27;57.53;101132.44;5069530;28;20095;-73
2021/07/12 07:32:56;;;;;;;8.27;6.00;;;;;;;25.73;57.54;101132.22;5068566;28;20040;-73
2021/07/12 07:35:22;;;;;;;5.88;5.28;;;;;;;25.53;57.09;101130.06;5068369;28;20136;-74
2021/07/12 07:37:47;;;;;;;6.33;5.70;;;;;;;25.28;55.58;101134.06;5068523;28;20123;-73
2021/07/12 07:40:15;;;;;;;7.68;6.40;;;;;;;24.69;57.25;101130.94;5069476;28;20166;-74
2021/07/12 07:42:41;;;;;;;6.18;5.53;;;;;;;24.92;57.57;101132.69;5070722;28;20045;-74
2021/07/12 07:45:08;;;;;;;5.97;5.47;;;;;;;25.04;56.71;101133.44;5070765;28;20029;-74
2021/07/12 07:47:34;;;;;;;10.55;6.97;;;;;;;24.90;57.01;101126.66;5069452;28;20267;-74
2021/07/12 07:50:00;;;;;;;14.02;7.07;;;;;;;25.57;55.23;101121.09;5071114;28;20123;-74
2021/07/12 07:52:25;;;;;;;17.23;8.27;;;;;;;26.27;54.99;101115.88;5069479;28;20079;-74
2021/07/12 07:54:50;;;;;;;8.88;7.30;;;;;;;26.00;54.55;101118.63;5070763;28;20051;-75
2021/07/12 07:57:16;;;;;;;6.30;5.70;;;;;;;25.32;54.69;101112.56;5070267;28;20033;-75
2021/07/12 07:59:42;;;;;;;12.80;7.25;;;;;;;25.78;56.31;101113.97;5069915;28;20455;-74
2021/07/12 08:02:07;;;;;;;7.88;5.97;;;;;;;25.49;54.98;101105.94;5069517;28;20119;-74
2021/07/12 08:04:33;;;;;;;5.93;5.33;;;;;;;25.08;54.32;101101.81;5069282;28;20036;-74
2021/07/12 08:06:58;;;;;;;12.60;5.77;;;;;;;25.30;54.78;101101.88;5070548;28;20658;-74
2021/07/12 08:09:24;;;;;;;6.13;5.53;;;;;;;25.81;52.98;101109.91;5069444;28;20035;-74
2021/07/12 08:11:51;;;;;;;;;;;;;;;25.37;53.47;101099.78;5069986;28;20086;-74
2021/07/12 08:14:18;;;;;;;6.35;5.68;;;;;;;25.17;54.59;101097.56;5070222;28;19912;-74
2021/07/12 08:16:44;;;;;;;8.20;5.93;;;;;;;25.47;55.76;101094.47;5070072;28;20111;-75
2021/07/12 08:19:09;;;;;;;7.93;6.18;;;;;;;26.29;54.67;101091.84;5069468;28;20136;-75
2021/07/12 08:21:35;;;;;;;11.33;5.37;;;;;;;26.08;53.66;101085.31;5070381;28;20036;-75
2021/07/12 08:24:00;;;;;;;6.60;6.00;;;;;;;26.20;53.75;101087.91;5070080;28;20290;-74
2021/07/12 08:26:26;;;;;;;6.97;5.60;;;;;;;26.46;50.43;101094.47;5069193;28;20090;-74
2021/07/12 08:28:51;;;;;;;9.02;5.35;;;;;;;26.20;52.34;101102.44;5068952;28;20066;-75
2021/07/12 08:31:17;;;;;;;7.45;5.85;;;;;;;26.26;51.60;101089.63;5069188;28;20024;-74
2021/07/12 08:33:43;;;;;;;6.30;5.45;;;;;;;25.72;51.91;101092.28;5052481;28;20029;-74
2021/07/12 08:36:10;;;;;;;5.90;5.38;;;;;;;26.36;51.62;101095.19;5068797;28;20039;-74
2021/07/12 08:38:35;;;;;;;9.10;5.40;;;;;;;26.28;50.64;101095.66;5069218;28;20032;-75
2021/07/12 08:41:01;;;;;;;8.95;5.05;;;;;;;26.45;51.87;101093.63;5067325;28;20121;-75
2021/07/12 08:43:27;;;;;;;7.00;4.93;;;;;;;27.10;49.53;101104.56;5068497;28;20388;-75
2021/07/12 08:45:52;;;;;;;7.03;5.18;;;;;;;27.02;49.32;101092.19;5068171;28;20028;-75
2021/07/12 08:48:18;;;;;;;6.27;5.00;;;;;;;27.41;47.53;101099.28;5067496;28;20090;-75
2021/07/12 08:50:45;;;;;;;5.57;5.07;;;;;;;27.73;48.47;101099.97;5068672;28;20736;-75
2021/07/12 08:53:12;;;;;;;7.68;5.57;;;;;;;27.26;49.22;101094.56;5068408;28;20025;-75
2021/07/12 08:55:37;;;;;;;7.13;5.13;;;;;;;27.14;48.92;101097.47;5069200;28;20045;-75
2021/07/12 08:58:24;;;;;;;16.13;6.00;;;;;;;27.13;50.21;101088.41;5068937;28;20040;-75
2021/07/12 09:00:53;;;;;;;6.47;4.97;;;;;;;26.84;50.43;101087.94;5069106;28;20293;-75
2021/07/12 09:03:33;;;;;;;6.28;4.97;;;;;;;27.16;48.34;101089.81;5069728;28;20038;-75
2021/07/12 09:06:16;;;;;;;9.13;5.72;;;;;;;27.62;49.44;101089.22;5068533;28;20040;-75
2021/07/12 09:08:58;;;;;;;5.15;4.75;;;;;;;28.17;48.26;101082.28;5068824;28;20044;-75
2021/07/12 09:11:24;;;;;;;6.78;5.38;;;;;;;28.50;47.14;101089.22;5069919;28;20036;-75
2021/07/12 09:14:00;;;;;;;5.97;5.37;;;;;;;27.51;47.30;101088.34;5069798;28;20205;-75
2021/07/12 09:16:37;;;;;;;;;;;;;;;28.12;46.84;101091.34;5069176;28;20029;-76
2021/07/12 09:19:11;;;;;;;7.32;4.50;;;;;;;28.62;46.22;101091.69;5085534;28;20246;-75
2021/07/12 09:21:44;;;;;;;5.70;5.18;;;;;;;28.26;44.43;101082.56;5069893;28;20028;-75
2021/07/12 09:24:25;;;;;;;7.03;4.88;;;;;;;27.96;47.19;101084.16;5069431;28;20024;-76
2021/07/12 09:26:53;;;;;;;5.90;5.38;;;;;;;27.93;48.40;101082.78;5068659;28;20081;-75
2021/07/12 09:29:21;;;;;;;7.53;5.78;;;;;;;27.63;46.53;101085.38;5068532;28;20119;-76
2021/07/12 09:31:47;;;;;;;6.35;5.18;;;;;;;27.36;47.27;101078.97;5069685;28;20020;-75
2021/07/12 09:34:13;;;;;;;6.30;5.05;;;;;;;27.83;46.32;101079.16;5068313;28;20108;-75
2021/07/12 09:36:39;;;;;;;6.22;5.30;;;;;;;28.18;46.15;101076.50;5069497;28;20099;-76
2021/07/12 09:39:30;;;;;;;7.53;5.20;;;;;;;28.45;45.85;101075.44;5069414;28;20044;-76
2021/07/12 09:42:18;;;;;;;7.28;4.32;;;;;;;28.12;45.89;101066.63;5071231;28;20032;-76
2021/07/12 09:45:08;;;;;;;6.03;5.07;;;;;;;27.52;45.97;101065.34;5073058;28;20032;-76
2021/07/12 09:47:38;;;;;;;8.60;4.60;;;;;;;27.94;46.02;101069.91;5072920;28;20109;-76
2021/07/12 09:50:14;;;;;;;7.57;5.35;;;;;;;28.34;44.43;101069.13;5072303;28;20040;-75
2021/07/12 09:52:43;;;;;;;4.95;4.55;;;;;;;28.70;42.87;101060.91;5073151;28;20095;-75
2021/07/12 09:55:22;;;;;;;8.73;7.82;;;;;;;28.84;43.73;101063.91;5072166;28;20034;-75
2021/07/12 09:58:04;;;;;;;10.82;8.13;;;;;;;28.62;44.45;101061.47;5072185;28;20036;-75
2021/07/12 10:00:30;;;;;;;9.85;5.45;;;;;;;29.38;43.09;101060.47;5072990;28;20051;-75
2021/07/12 10:02:55;;;;;;;9.30;8.33;;;;;;;29.14;43.99;101062.22;5088847;28;20024;-75
2021/07/12 10:05:20;;;;;;;5.60;5.13;;;;;;;29.02;43.96;101068.81;5071800;28;20291;-76
2021/07/12 10:07:46;;;;;;;5.18;4.68;;;;;;;28.38;42.79;101063.91;5071975;28;20047;-75
2021/07/12 10:10:15;;;;;;;11.23;8.95;;;;;;;28.52;44.21;101065.03;5055444;28;20039;-75
2021/07/12 10:12:42;;;;;;;6.10;5.60;;;;;;;28.07;44.95;101063.88;5055171;28;20039;-75
2021/07/12 10:15:09;;;;;;;11.38;7.50;;;;;;;28.46;44.85;101044.16;5071889;28;20109;-75
2021/07/12 10:17:34;;;;;;;8.05;5.07;;;;;;;27.08;45.63;101060.97;5071460;28;20016;-75
2021/07/12 10:19:59;;;;;;;6.20;5.70;;;;;;;27.65;45.46;101056.63;5072173;28;20041;-75
2021/07/12 10:22:32;;;;;;;6.07;5.33;;;;;;;28.09;44.40;101056.19;5088399;28;20527;-75
2021/07/12 10:25:09;;;;;;;5.97;4.45;;;;;;;28.55;43.69;101050.75;5071923;28;20054;-75
2021/07/12 10:27:51;;;;;;;5.60;4.72;;;;;;;28.29;44.54;101051.84;5071394;28;20139;-75
2021/07/12 10:30:43;;;;;;;8.23;4.63;;;;;;;28.02;44.60;101044.66;5071736;28;20032;-75
2021/07/12 10:33:11;;;;;;;10.02;4.88;;;;;;;28.83;43.65;101038.34;5072537;28;20040;-76
2021/07/12 10:35:54;;;;;;;5.40;4.90;;;;;;;28.73;43.63;101037.53;5071650;28;20028;-76
2021/07/12 10:38:37;;;;;;;5.47;4.97;;;;;;;27.85;44.35;101046.81;5072164;28;20590;-75
2021/07/12 10:41:18;;;;;;;5.78;5.22;;;;;;;27.41;47.30;101039.78;5071088;28;20311;-76
2021/07/12 10:43:49;;;;;;;8.80;4.47;;;;;;;26.76;46.78;101028.19;5054531;28;20052;-75
2021/07/12 10:46:24;;;;;;;7.18;4.40;;;;;;;26.64;46.43;101030.28;5072025;28;20418;-75
2021/07/12 10:48:50;;;;;;;7.38;4.80;;;;;;;26.82;47.69;101037.28;5071231;28;20044;-75
2021/07/12 10:51:30;;;;;;;;;;;;;;;26.74;45.83;101020.25;5054938;28;20376;-74
2021/07/12 10:54:07;;;;;;;5.78;4.85;;;;;;;27.51;44.78;101025.28;5070841;28;20014;-76
2021/07/12 10:57:02;;;;;;;5.95;5.32;;;;;;;27.78;46.40;101022.34;5070943;28;20068;-76
2021/07/12 10:59:33;;;;;;;6.80;4.70;;;;;;;28.46;44.04;101024.09;5070995;28;20040;-76
2021/07/12 11:02:14;;;;;;;5.10;4.60;;;;;;;28.23;45.30;101029.03;5054467;28;20127;-76
2021/07/12 11:04:52;;;;;;;5.38;4.25;;;;;;;28.60;45.28;101020.53;5070766;28;20040;-76
2021/07/12 11:07:39;;;;;;;5.38;3.80;;;;;;;28.92;44.58;101024.06;5070847;28;20457;-76
2021/07/12 11:10:05;;;;;;;4.82;4.32;;;;;;;29.01;44.36;101014.97;5071849;28;20037;-76
2021/07/12 11:12:35;;;;;;;;;;;;;;;28.59;43.27;101021.66;5071386;28;20457;-76
2021/07/12 11:15:27;;;;;;;5.07;4.00;;;;;;;28.76;43.48;101004.03;5071647;28;20549;-76
2021/07/12 11:18:04;;;;;;;5.40;4.10;;;;;;;27.87;44.36;101018.03;5070671;28;20033;-77
2021/07/12 11:20:48;;;;;;;7.70;4.28;;;;;;;27.97;46.08;101011.72;5071683;28;20105;-77
2021/07/12 11:23:36;;;;;;;6.45;4.03;;;;;;;28.20;45.61;100997.47;5053996;28;20047;-77
2021/07/12 11:26:02;;;;;;;12.45;4.70;;;;;;;28.77;43.18;101000.19;5070201;28;20040;-77
2021/07/12 11:28:47;;;;;;;;;;;;;;;29.04;43.33;100989.66;5072111;28;20476;-77
2021/07/12 11:31:41;;;;;;;4.50;4.10;;;;;;;29.17;42.66;100990.19;5070944;28;19923;-77
2021/07/12 11:34:27;;;;;;;5.63;4.10;;;;;;;30.17;39.65;100988.22;5070352;28;20036;-77
2021/07/12 11:36:54;;;;;;;5.00;3.95;;;;;;;29.77;40.48;100984.69;5069918;28;20115;-77